createdAt,value
2018-04-13T00:01:49.174Z,6.50
2018-04-13T00:04:16.432Z,5.97
2018-04-13T00:06:43.695Z,5.77
2018-04-13T00:09:10.963Z,6.63
2018-04-13T00:11:38.239Z,7.70
2018-04-13T00:14:05.498Z,7.87
2018-04-13T00:16:32.779Z,7.30
2018-04-13T00:19:00.066Z,7.27
2018-04-13T00:21:27.347Z,7.50
2018-04-13T00:23:54.587Z,8.20
2018-04-13T00:26:21.866Z,7.83
2018-04-13T00:28:49.121Z,8.10
2018-04-13T00:31:16.410Z,7.10
2018-04-13T00:33:43.672Z,8.10
2018-04-13T00:36:10.938Z,10.57
2018-04-13T00:38:38.242Z,9.90
2018-04-13T00:41:05.496Z,8.83
2018-04-13T00:43:32.775Z,10.57
2018-04-13T00:46:00.048Z,9.93
2018-04-13T00:48:27.323Z,9.30
2018-04-13T00:50:54.592Z,10.17
2018-04-13T00:53:27.732Z,9.23
2018-04-13T00:55:54.991Z,9.73
2018-04-13T00:58:22.275Z,9.27
2018-04-13T01:00:49.530Z,9.13
2018-04-13T01:03:16.814Z,10.80
2018-04-13T01:05:44.080Z,9.60
2018-04-13T01:08:11.346Z,9.60
2018-04-13T01:10:38.602Z,10.10
2018-04-13T01:13:05.876Z,9.93
2018-04-13T01:15:33.147Z,9.93
2018-04-13T01:18:00.411Z,9.30
2018-04-13T01:20:27.670Z,9.87
2018-04-13T01:22:54.950Z,9.80
2018-04-13T01:25:22.199Z,8.53
2018-04-13T01:27:49.459Z,10.07
2018-04-13T01:30:16.737Z,8.77
2018-04-13T01:32:43.987Z,10.07
2018-04-13T01:35:11.283Z,10.60
2018-04-13T01:37:38.568Z,10.33
2018-04-13T01:40:05.843Z,9.80
2018-04-13T01:42:33.107Z,12.20
2018-04-13T01:45:00.384Z,10.73
2018-04-13T01:47:27.651Z,10.60
2018-04-13T01:49:54.934Z,10.40
2018-04-13T01:52:22.215Z,10.10
2018-04-13T01:54:49.500Z,10.93
2018-04-13T01:57:16.762Z,11.23
2018-04-13T01:59:44.039Z,10.97
2018-04-13T02:02:11.316Z,10.67
2018-04-13T02:04:38.600Z,11.90
2018-04-13T02:07:05.863Z,13.00
2018-04-13T02:09:33.162Z,11.50
2018-04-13T02:12:00.427Z,14.53
2018-04-13T02:14:27.695Z,11.40
2018-04-13T02:16:54.974Z,11.93
2018-04-13T02:19:22.243Z,11.53
2018-04-13T02:21:49.523Z,15.33
2018-04-13T02:24:16.787Z,10.63
2018-04-13T02:26:44.072Z,13.03
2018-04-13T02:29:11.330Z,12.40
2018-04-13T02:31:38.620Z,11.50
2018-04-13T02:34:05.880Z,11.90
2018-04-13T02:36:33.163Z,12.87
2018-04-13T02:39:00.430Z,12.50
2018-04-13T02:41:27.716Z,12.40
2018-04-13T02:43:54.979Z,13.30
2018-04-13T02:46:22.263Z,13.63
2018-04-13T02:48:49.531Z,13.40
2018-04-13T02:51:16.814Z,13.67
2018-04-13T02:53:44.079Z,12.43
2018-04-13T02:56:11.375Z,12.00
2018-04-13T02:58:38.656Z,12.17
2018-04-13T03:01:05.931Z,12.10
2018-04-13T03:03:33.212Z,12.63
2018-04-13T03:06:00.480Z,12.30
2018-04-13T03:08:27.758Z,13.00
2018-04-13T03:10:55.037Z,14.33
2018-04-13T03:13:22.321Z,13.60
2018-04-13T03:15:49.598Z,12.70
2018-04-13T03:18:16.875Z,11.17
2018-04-13T03:20:44.135Z,11.63
2018-04-13T03:23:11.411Z,12.40
2018-04-13T03:25:38.679Z,11.37
2018-04-13T03:28:05.979Z,12.10
2018-04-13T03:30:33.251Z,13.93
2018-04-13T03:33:00.507Z,13.70
2018-04-13T03:35:27.791Z,15.13
2018-04-13T03:37:55.057Z,14.83
2018-04-13T03:40:22.338Z,16.47
2018-04-13T03:42:49.607Z,14.00
2018-04-13T03:45:16.886Z,16.40
2018-04-13T03:47:44.147Z,15.60
2018-04-13T03:50:11.434Z,16.23
2018-04-13T03:52:38.695Z,16.90
2018-04-13T03:55:05.983Z,19.90
2018-04-13T03:57:33.254Z,20.30
2018-04-13T04:00:00.515Z,17.93
2018-04-13T04:02:27.807Z,18.47
2018-04-13T04:04:55.074Z,17.43
2018-04-13T04:07:22.361Z,18.23
2018-04-13T04:09:49.615Z,18.87
2018-04-13T04:12:16.903Z,19.63
2018-04-13T04:14:44.166Z,21.43
2018-04-13T04:17:11.447Z,18.40
2018-04-13T04:19:44.640Z,20.53
2018-04-13T04:22:17.635Z,22.13
2018-04-13T04:24:50.791Z,20.50
2018-04-13T04:27:18.079Z,19.90
2018-04-13T04:29:45.379Z,21.40
2018-04-13T04:32:12.663Z,23.03
2018-04-13T04:34:39.932Z,20.80
2018-04-13T04:37:07.219Z,25.03
2018-04-13T04:39:34.485Z,23.60
2018-04-13T04:42:01.887Z,25.50
2018-04-13T04:44:29.158Z,25.63
2018-04-13T04:46:56.411Z,21.37
2018-04-13T04:49:23.846Z,22.25
2018-04-13T04:51:51.113Z,23.70
2018-04-13T04:54:18.414Z,22.10
2018-04-13T04:56:45.680Z,22.17
2018-04-13T04:59:12.962Z,23.17
2018-04-13T05:01:40.347Z,21.67
2018-04-13T05:04:07.622Z,24.23
2018-04-13T05:06:34.891Z,20.50
2018-04-13T05:09:02.183Z,22.13
2018-04-13T05:11:29.486Z,22.47
2018-04-13T05:13:56.740Z,21.73
2018-04-13T05:16:24.040Z,21.00
2018-04-13T05:18:51.302Z,20.10
2018-04-13T05:21:18.571Z,22.43
2018-04-13T05:23:45.855Z,22.63
2018-04-13T05:26:13.123Z,24.50
2018-04-13T05:28:40.410Z,23.57
2018-04-13T05:31:07.688Z,24.30
2018-04-13T05:33:34.956Z,24.80
2018-04-13T05:36:02.238Z,26.37
2018-04-13T05:38:29.507Z,26.03
2018-04-13T05:40:56.795Z,27.17
2018-04-13T05:43:24.056Z,27.10
2018-04-13T05:45:51.350Z,27.17
2018-04-13T05:48:18.609Z,25.10
2018-04-13T05:50:45.883Z,27.43
2018-04-13T05:53:13.148Z,28.97
2018-04-13T05:55:40.434Z,26.90
2018-04-13T05:58:07.695Z,24.97
2018-04-13T06:00:34.979Z,29.40
2018-04-13T06:03:02.247Z,26.37
2018-04-13T06:05:29.541Z,25.40
2018-04-13T06:07:56.803Z,25.27
2018-04-13T06:10:24.063Z,25.23
2018-04-13T06:12:51.347Z,23.73
2018-04-13T06:15:18.626Z,24.13
2018-04-13T06:17:45.984Z,24.60
2018-04-13T06:20:13.332Z,22.97
2018-04-13T06:22:40.610Z,23.80
2018-04-13T06:25:07.876Z,24.80
2018-04-13T06:27:35.155Z,25.53
2018-04-13T06:30:02.418Z,21.70
2018-04-13T06:32:29.695Z,22.53
2018-04-13T06:34:56.959Z,22.93
2018-04-13T06:37:24.246Z,23.77
2018-04-13T06:39:51.508Z,22.77
2018-04-13T06:42:18.791Z,21.97
2018-04-13T06:44:46.053Z,20.77
2018-04-13T06:47:13.333Z,20.93
2018-04-13T06:49:40.598Z,22.37
2018-04-13T06:52:07.887Z,20.97
2018-04-13T06:54:35.150Z,18.30
2018-04-13T06:57:02.423Z,19.80
2018-04-13T06:59:29.691Z,19.33
2018-04-13T07:01:56.955Z,19.27
2018-04-13T07:04:24.243Z,17.97
2018-04-13T07:06:51.511Z,18.93
2018-04-13T07:09:18.794Z,20.07
2018-04-13T07:11:46.060Z,18.67
2018-04-13T07:14:13.345Z,20.43
2018-04-13T07:16:40.612Z,20.70
2018-04-13T07:19:07.895Z,19.27
2018-04-13T07:21:35.251Z,18.27
2018-04-13T07:24:02.531Z,18.30
2018-04-13T07:26:29.791Z,18.70
2018-04-13T07:28:57.088Z,17.80
2018-04-13T07:31:24.342Z,18.60
2018-04-13T07:33:51.613Z,18.97
2018-04-13T07:36:18.887Z,17.17
2018-04-13T07:38:46.468Z,15.57
2018-04-13T07:41:13.725Z,17.50
2018-04-13T07:43:40.990Z,16.00
2018-04-13T07:46:08.287Z,15.47
2018-04-13T07:48:35.551Z,17.00
2018-04-13T07:51:02.830Z,21.30
2018-04-13T07:53:30.104Z,24.50
2018-04-13T07:55:57.387Z,24.63
2018-04-13T07:58:24.657Z,24.50
2018-04-13T08:00:51.928Z,23.87
2018-04-13T08:03:19.187Z,24.10
2018-04-13T08:05:46.471Z,24.00
2018-04-13T08:08:13.735Z,23.93
2018-04-13T08:10:41.007Z,22.50
2018-04-13T08:13:08.282Z,24.90
2018-04-13T08:15:35.547Z,24.40
2018-04-13T08:18:02.887Z,23.10
2018-04-13T08:20:30.094Z,24.10
2018-04-13T08:22:57.371Z,25.17
2018-04-13T08:25:24.639Z,24.57
2018-04-13T08:27:51.923Z,25.87
2018-04-13T08:30:19.211Z,25.63
2018-04-13T08:32:46.468Z,25.27
2018-04-13T08:35:13.730Z,26.33
2018-04-13T08:37:41.010Z,27.10
2018-04-13T08:40:08.262Z,27.87
2018-04-13T08:42:35.571Z,25.80
2018-04-13T08:45:02.821Z,25.37
2018-04-13T08:47:30.100Z,27.83
2018-04-13T08:49:57.373Z,28.13
2018-04-13T08:52:24.643Z,26.07
2018-04-13T08:54:51.912Z,27.60
2018-04-13T08:57:19.186Z,26.90
2018-04-13T08:59:46.450Z,28.73
2018-04-13T09:02:13.750Z,27.83
2018-04-13T09:04:41.011Z,28.47
2018-04-13T09:07:08.271Z,27.00
2018-04-13T09:09:35.576Z,25.10
2018-04-13T09:12:02.815Z,25.60
2018-04-13T09:14:35.976Z,26.17
2018-04-13T09:17:03.238Z,29.60
2018-04-13T09:19:30.523Z,29.37
2018-04-13T09:21:57.780Z,28.33
2018-04-13T09:24:25.078Z,27.90
2018-04-13T09:26:52.339Z,31.50
2018-04-13T09:29:19.623Z,28.83
2018-04-13T09:31:46.887Z,29.23
2018-04-13T09:34:14.172Z,29.80
2018-04-13T09:36:41.432Z,31.40
2018-04-13T09:39:08.709Z,28.47
2018-04-13T09:41:35.971Z,28.67
2018-04-13T09:44:03.252Z,27.30
2018-04-13T09:46:30.507Z,32.03
2018-04-13T09:48:57.784Z,33.90
2018-04-13T09:51:25.045Z,30.27
2018-04-13T09:53:52.302Z,33.53
2018-04-13T09:56:19.574Z,32.77
2018-04-13T09:58:46.842Z,35.23
2018-04-13T10:01:15.858Z,37.13
2018-04-13T10:03:48.896Z,33.23
2018-04-13T10:06:16.171Z,31.43
2018-04-13T10:08:43.435Z,31.17
2018-04-13T10:11:10.715Z,29.87
2018-04-13T10:13:37.980Z,31.83
2018-04-13T10:16:05.259Z,30.00
2018-04-13T10:18:32.524Z,29.93
2018-04-13T10:20:59.800Z,29.00
2018-04-13T10:23:27.055Z,28.23
2018-04-13T10:25:54.349Z,30.40
2018-04-13T10:28:21.608Z,28.30
2018-04-13T10:30:48.870Z,26.57
2018-04-13T10:33:16.184Z,26.60
2018-04-13T10:35:43.462Z,28.80
2018-04-13T10:38:10.728Z,29.20
2018-04-13T10:40:37.991Z,29.67
2018-04-13T10:43:05.272Z,26.20
2018-04-13T10:45:32.535Z,27.00
2018-04-13T10:47:59.813Z,27.33
2018-04-13T10:50:27.074Z,29.47
2018-04-13T10:52:54.355Z,28.47
2018-04-13T10:55:21.615Z,27.03
2018-04-13T10:57:48.895Z,25.40
2018-04-13T11:00:16.153Z,25.73
2018-04-13T11:02:43.801Z,25.60
2018-04-13T11:05:11.114Z,23.93
2018-04-13T11:07:38.379Z,27.30
2018-04-13T11:10:05.651Z,27.13
2018-04-13T11:12:32.915Z,25.73
2018-04-13T11:15:00.195Z,26.20
2018-04-13T11:17:27.461Z,28.80
2018-04-13T11:19:54.739Z,26.37
2018-04-13T11:22:22.283Z,27.33
2018-04-13T11:24:49.661Z,25.00
2018-04-13T11:27:16.888Z,24.60
2018-04-13T11:29:44.167Z,27.83
2018-04-13T11:32:11.439Z,33.20
2018-04-13T11:34:38.715Z,30.43
2018-04-13T11:37:05.975Z,36.43
2018-04-13T11:39:33.251Z,33.40
2018-04-13T11:42:00.511Z,33.47
2018-04-13T11:44:27.790Z,38.17
2018-04-13T11:46:55.050Z,36.10
2018-04-13T11:49:22.342Z,34.60
2018-04-13T11:51:49.626Z,38.20
2018-04-13T11:54:16.866Z,40.70
2018-04-13T11:56:44.146Z,40.33
2018-04-13T11:59:11.418Z,40.83
2018-04-13T12:01:38.693Z,41.23
2018-04-13T12:04:05.959Z,42.00
2018-04-13T12:06:33.237Z,42.23
2018-04-13T12:09:00.509Z,41.43
2018-04-13T12:11:27.781Z,41.93
2018-04-13T12:13:55.044Z,42.83
2018-04-13T12:16:22.323Z,40.60
2018-04-13T12:18:49.581Z,41.17
2018-04-13T12:21:16.859Z,38.47
2018-04-13T12:23:44.128Z,39.20
2018-04-13T12:26:11.403Z,37.03
2018-04-13T12:28:38.667Z,37.73
2018-04-13T12:31:05.950Z,39.30
2018-04-13T12:33:33.211Z,36.37
2018-04-13T12:36:00.502Z,35.17
2018-04-13T12:38:27.763Z,33.10
2018-04-13T12:40:55.030Z,30.10
2018-04-13T12:43:22.299Z,28.60
2018-04-13T12:45:49.564Z,26.90
2018-04-13T12:48:16.843Z,25.70
2018-04-13T12:50:44.251Z,21.77
2018-04-13T12:53:11.556Z,21.23
2018-04-13T12:55:38.850Z,20.23
2018-04-13T12:58:06.063Z,19.23
2018-04-13T13:00:33.322Z,20.20
2018-04-13T13:03:00.603Z,18.90
2018-04-13T13:05:27.872Z,17.67
2018-04-13T13:07:55.147Z,16.73
2018-04-13T13:10:22.414Z,17.70
2018-04-13T13:12:49.696Z,18.90
2018-04-13T13:15:16.958Z,16.60
2018-04-13T13:17:44.255Z,16.97
2018-04-13T13:20:11.510Z,17.60
2018-04-13T13:22:38.803Z,14.90
2018-04-13T13:25:06.056Z,14.80
2018-04-13T13:27:33.332Z,15.97
2018-04-13T13:30:00.595Z,15.20
2018-04-13T13:32:27.869Z,15.40
2018-04-13T13:34:55.134Z,14.13
2018-04-13T13:37:22.418Z,14.47
2018-04-13T13:39:49.686Z,14.20
2018-04-13T13:42:16.955Z,14.67
2018-04-13T13:44:44.232Z,14.20
2018-04-13T13:47:11.495Z,13.80
2018-04-13T13:49:38.787Z,14.03
2018-04-13T13:52:06.047Z,13.10
2018-04-13T13:54:33.412Z,12.87
2018-04-13T13:57:00.672Z,12.80
2018-04-13T13:59:27.951Z,14.40
2018-04-13T14:01:55.215Z,13.50
2018-04-13T14:04:22.496Z,15.00
2018-04-13T14:06:49.750Z,14.50
2018-04-13T14:09:17.035Z,12.37
2018-04-13T14:11:44.298Z,11.60
2018-04-13T14:14:11.579Z,10.83
2018-04-13T14:16:38.844Z,10.30
2018-04-13T14:19:06.126Z,9.97
2018-04-13T14:21:33.383Z,9.97
2018-04-13T14:24:00.661Z,9.60
2018-04-13T14:26:27.920Z,10.10
2018-04-13T14:28:55.190Z,12.30
2018-04-13T14:31:22.469Z,10.53
2018-04-13T14:33:49.726Z,11.93
2018-04-13T14:36:16.999Z,9.30
2018-04-13T14:38:44.311Z,10.07
2018-04-13T14:41:11.531Z,8.20
2018-04-13T14:43:38.786Z,9.00
2018-04-13T14:46:06.065Z,7.57
2018-04-13T14:48:33.312Z,7.10
2018-04-13T14:51:00.622Z,7.10
2018-04-13T14:53:27.828Z,7.10
2018-04-13T14:55:55.093Z,6.27
2018-04-13T14:58:22.342Z,6.20
2018-04-13T15:00:49.622Z,5.87
2018-04-13T15:03:16.873Z,5.10
2018-04-13T15:05:44.135Z,5.03
2018-04-13T15:08:11.383Z,4.30
2018-04-13T15:10:38.633Z,4.27
2018-04-13T15:13:05.914Z,4.50
2018-04-13T15:15:33.155Z,3.37
2018-04-13T15:18:00.419Z,3.67
2018-04-13T15:20:27.667Z,3.63
2018-04-13T15:22:54.936Z,3.87
2018-04-13T15:25:22.187Z,3.70
2018-04-13T15:27:49.452Z,4.30
2018-04-13T15:30:16.697Z,3.50
2018-04-13T15:32:43.966Z,4.10
2018-04-13T15:35:11.217Z,3.90
2018-04-13T15:37:38.484Z,3.93
2018-04-13T15:40:05.734Z,3.60
2018-04-13T15:42:32.999Z,3.90
2018-04-13T15:45:00.271Z,4.20
2018-04-13T15:47:27.526Z,4.07
2018-04-13T15:49:54.787Z,4.20
2018-04-13T15:52:22.048Z,4.73
2018-04-13T15:54:49.311Z,4.30
2018-04-13T15:57:16.559Z,4.10
2018-04-13T15:59:43.827Z,4.10
2018-04-13T16:02:11.075Z,4.10
2018-04-13T16:04:38.338Z,3.80
2018-04-13T16:07:05.591Z,3.87
2018-04-13T16:09:32.864Z,4.63
2018-04-13T16:12:00.109Z,4.43
2018-04-13T16:14:27.375Z,5.13
2018-04-13T16:16:54.620Z,4.53
2018-04-13T16:19:21.869Z,4.80
2018-04-13T16:21:49.135Z,4.63
2018-04-13T16:24:16.386Z,5.53
2018-04-13T16:26:43.673Z,4.43
2018-04-13T16:29:10.911Z,4.60
2018-04-13T16:31:38.183Z,4.77
2018-04-13T16:34:05.435Z,4.57
2018-04-13T16:36:32.705Z,4.40
2018-04-13T16:38:59.960Z,4.90
2018-04-13T16:41:27.223Z,4.97
2018-04-13T16:43:54.474Z,4.43
2018-04-13T16:46:21.722Z,5.30
2018-04-13T16:48:48.999Z,5.30
2018-04-13T16:51:16.249Z,6.27
2018-04-13T16:53:43.516Z,5.93
2018-04-13T16:56:10.758Z,7.10
2018-04-13T16:58:38.627Z,6.70
2018-04-13T17:01:06.065Z,7.43
2018-04-13T17:03:33.334Z,7.20
2018-04-13T17:06:00.806Z,7.63
2018-04-13T17:08:28.074Z,8.03
2018-04-13T17:10:55.996Z,7.73
2018-04-13T17:13:23.267Z,8.70
2018-04-13T17:15:50.523Z,8.50
2018-04-13T17:18:17.803Z,8.57
2018-04-13T17:20:45.063Z,11.33
2018-04-13T17:23:12.322Z,9.07
2018-04-13T17:25:39.598Z,11.20
2018-04-13T17:28:06.860Z,11.70
2018-04-13T17:30:34.136Z,10.10
2018-04-13T17:33:01.398Z,11.40
2018-04-13T17:35:28.673Z,11.17
2018-04-13T17:37:55.941Z,10.17
2018-04-13T17:40:23.242Z,11.90
2018-04-13T17:42:50.478Z,12.17
2018-04-13T17:45:17.763Z,12.63
2018-04-13T17:47:45.027Z,11.90
2018-04-13T17:50:12.306Z,11.10
2018-04-13T17:52:39.575Z,11.93
2018-04-13T17:55:06.835Z,12.93
2018-04-13T17:57:34.111Z,11.40
2018-04-13T18:00:02.211Z,14.20
2018-04-13T18:02:29.492Z,12.67
2018-04-13T18:04:56.747Z,12.93
2018-04-13T18:07:24.072Z,12.30
2018-04-13T18:09:51.287Z,13.47
2018-04-13T18:12:18.572Z,13.60
2018-04-13T18:14:45.831Z,16.00
2018-04-13T18:17:13.107Z,13.67
2018-04-13T18:19:40.376Z,16.10
2018-04-13T18:22:07.651Z,16.67
2018-04-13T18:24:34.911Z,19.20
2018-04-13T18:27:02.184Z,15.40
2018-04-13T18:29:29.456Z,16.57
2018-04-13T18:31:56.727Z,18.03
2018-04-13T18:34:23.996Z,17.87
2018-04-13T18:36:51.271Z,14.57
2018-04-13T18:39:18.530Z,22.53
2018-04-13T18:41:45.797Z,17.13
2018-04-13T18:44:14.075Z,18.00
2018-04-13T18:46:42.708Z,19.50
2018-04-13T18:49:09.974Z,17.10
2018-04-13T18:51:37.275Z,18.90
2018-04-13T18:54:04.559Z,18.43
2018-04-13T18:56:31.937Z,19.43
2018-04-13T18:58:59.232Z,19.50
2018-04-13T19:01:26.488Z,21.07
2018-04-13T19:03:53.779Z,21.60
2018-04-13T19:06:21.035Z,23.40
2018-04-13T19:08:48.332Z,22.40
2018-04-13T19:11:15.592Z,20.83
2018-04-13T19:13:42.855Z,21.40
2018-04-13T19:16:10.135Z,19.50
2018-04-13T19:18:37.571Z,19.03
2018-04-13T19:21:04.847Z,19.40
2018-04-13T19:23:32.119Z,19.43
2018-04-13T19:25:59.395Z,21.90
2018-04-13T19:28:26.655Z,19.43
2018-04-13T19:30:53.935Z,19.67
2018-04-13T19:33:21.335Z,17.23
2018-04-13T19:35:50.049Z,16.20
2018-04-13T19:38:18.568Z,18.53
2018-04-13T19:40:45.923Z,17.87
2018-04-13T19:43:13.188Z,17.20
2018-04-13T19:45:40.687Z,16.80
2018-04-13T19:48:07.971Z,16.63
2018-04-13T19:50:35.249Z,15.63
2018-04-13T19:53:02.528Z,15.30
2018-04-13T19:55:29.787Z,15.70
2018-04-13T19:57:57.065Z,13.17
2018-04-13T20:00:24.327Z,14.93
2018-04-13T20:02:51.611Z,14.10
2018-04-13T20:05:18.872Z,14.77
2018-04-13T20:07:46.151Z,16.90
2018-04-13T20:10:13.410Z,13.33
2018-04-13T20:12:40.691Z,15.57
2018-04-13T20:15:07.949Z,14.77
2018-04-13T20:17:35.230Z,15.27
2018-04-13T20:20:02.498Z,17.60
2018-04-13T20:22:29.783Z,15.60
2018-04-13T20:24:57.200Z,15.73
2018-04-13T20:27:26.047Z,19.27
2018-04-13T20:29:54.476Z,18.00
2018-04-13T20:32:22.931Z,19.33
2018-04-13T20:34:50.207Z,17.43
2018-04-13T20:37:17.471Z,18.13
2018-04-13T20:39:44.751Z,19.77
2018-04-13T20:42:12.031Z,16.80
2018-04-13T20:44:39.313Z,17.97
2018-04-13T20:47:06.572Z,17.53
2018-04-13T20:49:33.856Z,17.50
2018-04-13T20:52:01.111Z,16.07
2018-04-13T20:54:28.387Z,15.60
2018-04-13T20:56:55.659Z,17.00
2018-04-13T20:59:22.953Z,15.63
2018-04-13T21:01:50.215Z,14.10
2018-04-13T21:04:17.479Z,13.90
2018-04-13T21:06:44.753Z,14.93
2018-04-13T21:09:12.020Z,13.33
2018-04-13T21:11:39.306Z,13.40
2018-04-13T21:14:06.569Z,11.40
2018-04-13T21:16:33.847Z,12.57
2018-04-13T21:19:01.111Z,10.60
2018-04-13T21:21:28.402Z,10.90
2018-04-13T21:23:55.659Z,10.13
2018-04-13T21:26:22.957Z,10.80
2018-04-13T21:28:50.215Z,10.00
2018-04-13T21:31:17.475Z,11.63
2018-04-13T21:33:44.766Z,11.93
2018-04-13T21:36:12.038Z,12.80
2018-04-13T21:38:39.314Z,12.50
2018-04-13T21:41:06.579Z,14.10
2018-04-13T21:43:33.858Z,15.50
2018-04-13T21:46:01.122Z,18.60
2018-04-13T21:48:28.406Z,16.50
2018-04-13T21:50:55.675Z,18.93
2018-04-13T21:53:22.954Z,20.43
2018-04-13T21:55:50.227Z,21.73
2018-04-13T21:58:17.519Z,22.50
2018-04-13T22:00:44.782Z,24.37
2018-04-13T22:03:12.098Z,22.20
2018-04-13T22:05:39.324Z,25.57
2018-04-13T22:08:06.591Z,26.70
2018-04-13T22:10:33.876Z,28.60
2018-04-13T22:13:07.110Z,31.17
2018-04-13T22:15:34.395Z,28.27
2018-04-13T22:18:01.658Z,29.90
2018-04-13T22:20:28.946Z,28.67
2018-04-13T22:22:56.210Z,30.50
2018-04-13T22:25:23.495Z,29.50
2018-04-13T22:27:50.760Z,33.67
2018-04-13T22:30:18.042Z,31.70
2018-04-13T22:32:45.306Z,30.20
2018-04-13T22:35:12.590Z,32.60
2018-04-13T22:37:39.858Z,30.53
2018-04-13T22:40:07.174Z,28.17
2018-04-13T22:42:34.407Z,30.80
2018-04-13T22:45:01.679Z,30.40
2018-04-13T22:47:28.955Z,31.23
2018-04-13T22:49:56.227Z,31.10
2018-04-13T22:52:23.504Z,36.67
2018-04-13T22:54:50.770Z,38.00
2018-04-13T22:57:18.052Z,33.57
2018-04-13T22:59:45.319Z,33.60
2018-04-13T23:02:12.598Z,31.97
2018-04-13T23:04:39.867Z,28.07
2018-04-13T23:07:07.142Z,30.17
2018-04-13T23:09:34.402Z,29.50
2018-04-13T23:12:01.691Z,25.93
2018-04-13T23:14:28.955Z,28.93
2018-04-13T23:16:56.220Z,32.17
2018-04-13T23:19:23.498Z,28.37
2018-04-13T23:21:50.763Z,28.90
2018-04-13T23:24:18.294Z,27.40
2018-04-13T23:26:45.558Z,26.90
2018-04-13T23:29:12.845Z,28.83
2018-04-13T23:31:40.098Z,26.50
2018-04-13T23:34:07.379Z,24.57
2018-04-13T23:36:34.639Z,25.60
2018-04-13T23:39:01.918Z,24.23
2018-04-13T23:41:29.186Z,21.30
2018-04-13T23:43:56.466Z,20.57
2018-04-13T23:46:23.726Z,19.93
2018-04-13T23:48:51.008Z,20.80
2018-04-13T23:51:18.266Z,20.53
2018-04-13T23:53:45.542Z,18.70
2018-04-13T23:56:12.804Z,20.80
2018-04-13T23:58:40.083Z,19.50
